KCEW/CEW METAR and TAF weather

Enter ICAO airport designator
Station Type Date Time Source
KCEW METAR 2021/05/12 01:53 UTC NOAA

KCEW 120153Z AUTO 00000KT 9SM CLR 19/18 A3005 RMK AO2 SLP173 T01890183


Station Type Date Time Source
KCEW Decoded METAR 2021/05/12 01:53 UTC NOAA

CRESTVIEW SIKES AIRPORT, FL, United States (KCEW) 30-46N 086-31W 55M
May 11, 2021 - 09:53 PM EDT / 2021.05.12 0153 UTC
Wind: Calm:0
Visibility: 9 mile(s):0
Sky conditions: clear
Temperature: 66.0 F (18.9 C)
Dew Point: 64.9 F (18.3 C)
Relative Humidity: 96%
Pressure (altimeter): 30.05 in. Hg (1017 hPa)
ob: KCEW 120153Z AUTO 00000KT 9SM CLR 19/18 A3005 RMK AO2 SLP173 T01890183
cycle: 2

Station Type Date Time Source
KCEW TAF UTC NOAA

Error!

Example: see airport list